Aline, Oklahoma
Current Conditions -  °F | °C
As of 8:55 PM on Thursday 27 Nov 2014 (Local Time) from KAVK Reporting Station
Few Clouds Few Clouds  
Wind Chill: 31°   Ceiling: Unl
Heat Index: 39°   Visibility: 10mi
Dew Point: 27°   Wind: 14mph
Humidity: 61%   Direction: 180°S
Pressure: 30.2"   Gusts: NA
Location:  36.51°N, 98.45°W
Report Text: KAVK 280255Z AUTO 18012KT 10SM FEW036 04/M03 A3020 RMK AO2
Loading
Personal Weather Stations






























Interactive Weather Map New forecast layout! Learn more

10-Day Weather Forecast

Advertisements
Track Severe Weather on mobile